Time;durP1;ratioP1;P1;durP2;ratioP2;P2;SDS_P1;SDS_P2;PMS_P1;PMS_P2;Temp;Humidity;BMP_temperature;BMP_pressure;BME280_temperature;BME280_humidity;BME280_pressure;Samples;Min_cycle;Max_cycle;Signal;HPM_P1;HPM_P2
2023/01/26 00:00:27;;;;;;;14.75;6.65;;;0.50;99.90;;;;;;5034627;28;20156;-65
2023/01/26 00:02:52;;;;;;;21.20;7.18;;;0.00;99.90;;;;;;5016586;28;20042;-65
2023/01/26 00:05:18;;;;;;;16.52;7.32;;;0.00;99.90;;;;;;5016800;28;20103;-65
2023/01/26 00:07:44;;;;;;;16.70;5.97;;;0.00;99.90;;;;;;5034456;28;20049;-65
2023/01/26 00:10:11;;;;;;;16.13;7.10;;;-0.10;99.90;;;;;;5033956;28;20061;-65
2023/01/26 00:12:37;;;;;;;13.40;5.65;;;0.00;99.90;;;;;;5016510;28;20123;-65
2023/01/26 00:15:03;;;;;;;22.08;7.65;;;0.00;99.90;;;;;;5034398;28;20037;-65
2023/01/26 00:17:29;;;;;;;16.52;6.60;;;0.00;99.90;;;;;;5034125;28;20037;-65
2023/01/26 00:19:57;;;;;;;14.93;6.05;;;0.00;99.90;;;;;;5033249;28;20029;-65
2023/01/26 00:22:24;;;;;;;15.88;5.57;;;-0.10;99.90;;;;;;5016316;28;20088;-65
2023/01/26 00:24:50;;;;;;;15.57;5.85;;;0.00;99.90;;;;;;5000043;28;20083;-65
2023/01/26 00:27:15;;;;;;;16.63;6.18;;;0.00;99.90;;;;;;5034089;28;20072;-65
2023/01/26 00:29:41;;;;;;;16.30;7.85;;;0.00;99.90;;;;;;5034148;28;20408;-65
2023/01/26 00:32:06;;;;;;;13.15;6.07;;;0.00;99.90;;;;;;5034047;28;20048;-65
2023/01/26 00:34:32;;;;;;;13.40;5.97;;;0.00;99.90;;;;;;5034138;28;20033;-65
2023/01/26 00:36:57;;;;;;;17.67;7.05;;;0.50;99.90;;;;;;5033709;28;20045;-65
2023/01/26 00:39:23;;;;;;;14.48;5.65;;;0.00;99.90;;;;;;5016030;28;20052;-65
2023/01/26 00:42:08;;;;;;;16.60;6.22;;;0.00;99.90;;;;;;4999845;28;20396;-65
2023/01/26 00:44:36;;;;;;;13.05;6.28;;;0.00;99.90;;;;;;5033871;28;20160;-65
2023/01/26 00:47:01;;;;;;;15.07;6.20;;;0.00;99.90;;;;;;5033402;28;20077;-65
2023/01/26 00:49:27;;;;;;;14.20;5.88;;;0.00;99.90;;;;;;5033717;28;20114;-65
2023/01/26 00:51:53;;;;;;;10.02;4.40;;;0.00;99.90;;;;;;5015726;28;20045;-64
2023/01/26 00:54:18;;;;;;;15.30;5.60;;;0.10;99.90;;;;;;5015942;28;20080;-65
2023/01/26 00:56:44;;;;;;;9.98;5.38;;;0.00;99.90;;;;;;5016040;28;20057;-65
2023/01/26 00:59:09;;;;;;;13.98;5.70;;;0.00;99.90;;;;;;5033529;28;20064;-65
2023/01/26 01:01:35;;;;;;;15.73;6.28;;;0.00;99.90;;;;;;5033513;28;20568;-65
2023/01/26 01:04:01;;;;;;;14.23;5.88;;;0.00;99.90;;;;;;4999052;28;20547;-64
2023/01/26 01:06:26;;;;;;;9.43;4.30;;;0.00;99.90;;;;;;5033459;28;20121;-64
2023/01/26 01:08:52;;;;;;;9.45;4.70;;;0.10;99.90;;;;;;5033291;28;20041;-65
2023/01/26 01:11:17;;;;;;;13.70;5.45;;;0.10;99.90;;;;;;5015363;28;20124;-65
2023/01/26 01:13:43;;;;;;;12.55;6.15;;;0.00;99.90;;;;;;5015411;28;20579;-65
2023/01/26 01:16:11;;;;;;;10.82;5.35;;;0.10;99.90;;;;;;4998951;28;20041;-65
2023/01/26 01:18:37;;;;;;;13.20;4.68;;;0.10;99.90;;;;;;5015312;28;20099;-65
2023/01/26 01:21:07;;;;;;;14.98;5.82;;;0.00;99.90;;;;;;5033251;28;20076;-65
2023/01/26 01:23:33;;;;;;;9.30;4.30;;;-0.10;99.90;;;;;;5015169;28;20060;-65
2023/01/26 01:25:59;;;;;;;11.32;4.45;;;0.00;99.90;;;;;;5032854;28;20037;-65
2023/01/26 01:28:25;;;;;;;14.63;5.78;;;0.10;99.90;;;;;;5015060;28;20038;-65
2023/01/26 01:30:51;;;;;;;11.23;4.70;;;0.10;99.90;;;;;;5032692;28;20091;-65
2023/01/26 01:33:17;;;;;;;13.40;4.70;;;0.10;99.90;;;;;;5015035;28;20045;-65
2023/01/26 01:35:42;;;;;;;13.13;5.38;;;0.10;99.90;;;;;;5032739;28;20037;-65
2023/01/26 01:38:08;;;;;;;9.68;4.63;;;0.10;99.90;;;;;;5032967;28;20496;-65
2023/01/26 01:40:33;;;;;;;15.98;5.72;;;0.10;99.90;;;;;;5033015;28;20045;-65
2023/01/26 01:42:59;;;;;;;16.35;6.18;;;0.10;99.90;;;;;;5032968;28;20037;-65
2023/01/26 01:45:25;;;;;;;15.02;5.07;;;0.10;99.90;;;;;;5015355;28;20128;-65
2023/01/26 01:48:02;;;;;;;11.75;5.03;;;0.10;99.90;;;;;;5032583;28;20241;-65
2023/01/26 01:50:34;;;;;;;11.07;5.63;;;0.10;99.90;;;;;;5032666;28;20112;-65
2023/01/26 01:53:00;;;;;;;10.80;4.80;;;0.20;99.90;;;;;;5032872;28;20049;-65
2023/01/26 01:55:26;;;;;;;11.85;4.57;;;0.50;99.90;;;;;;5015196;28;20436;-65
2023/01/26 01:57:57;;;;;;;12.40;5.38;;;0.40;99.90;;;;;;5032815;28;20052;-65
2023/01/26 02:00:23;;;;;;;12.63;4.72;;;0.40;99.90;;;;;;5032841;28;20551;-65
2023/01/26 02:03:17;;;;;;;12.10;4.97;;;0.40;99.90;;;;;;5032727;28;20037;-64
2023/01/26 02:06:08;;;;;;;10.15;4.10;;;0.00;99.90;;;;;;5015132;28;20070;-65
2023/01/26 02:08:43;;;;;;;12.48;5.07;;;0.30;99.90;;;;;;5014683;28;20049;-65
2023/01/26 02:11:15;;;;;;;11.50;5.20;;;0.50;99.90;;;;;;5032246;28;20060;-65
2023/01/26 02:13:42;;;;;;;8.30;4.25;;;0.50;99.90;;;;;;5032655;28;20046;-65
2023/01/26 02:16:08;;;;;;;14.43;4.60;;;0.00;99.90;;;;;;5032318;28;20047;-65
2023/01/26 02:18:33;;;;;;;13.27;5.22;;;0.00;99.90;;;;;;5032310;28;20509;-65
2023/01/26 02:21:02;;;;;;;14.60;5.60;;;0.50;99.90;;;;;;5032596;28;20041;-65
2023/01/26 02:23:37;;;;;;;11.23;4.78;;;0.10;99.90;;;;;;5014836;28;20049;-65
2023/01/26 02:26:19;;;;;;;15.93;4.93;;;0.50;99.90;;;;;;5032513;28;20095;-65
2023/01/26 02:28:46;;;;;;;10.75;4.25;;;0.40;99.90;;;;;;5032124;28;20037;-65
2023/01/26 02:31:12;;;;;;;10.75;4.25;;;;;;;;;;4998492;28;20041;-65
2023/01/26 02:33:39;;;;;;;11.43;4.85;;;;;;;;;;5032542;28;20084;-65
2023/01/26 02:36:05;;;;;;;10.95;4.32;;;;;;;;;;5032472;28;20060;-66
2023/01/26 02:38:45;;;;;;;11.75;4.05;;;0.20;99.90;;;;;;4998536;28;20145;-66
2023/01/26 02:42:37;;;;;;;9.45;3.53;;;0.30;99.90;;;;;;5032384;28;20121;-66
2023/01/26 02:44:05;;;;;;;9.27;4.50;;;0.30;99.90;;;;;;5034488;28;20050;-66
2023/01/26 02:46:31;;;;;;;16.75;5.57;;;0.30;99.90;;;;;;5018257;28;20045;-66
2023/01/26 02:51:40;;;;;;;9.38;3.78;;;0.30;99.90;;;;;;5035942;28;20120;-66
2023/01/26 02:54:06;;;;;;;11.15;3.83;;;0.30;99.90;;;;;;5017969;28;20544;-66
2023/01/26 02:56:32;;;;;;;10.73;4.28;;;0.30;99.90;;;;;;5035520;28;20531;-66
2023/01/26 02:58:57;;;;;;;13.65;5.05;;;0.30;99.90;;;;;;5035854;28;20037;-65
2023/01/26 03:01:23;;;;;;;13.13;4.53;;;0.30;99.90;;;;;;5035823;28;20033;-65
2023/01/26 03:03:48;;;;;;;13.07;4.50;;;0.30;99.90;;;;;;5035740;28;20055;-65
2023/01/26 03:06:14;;;;;;;9.15;4.55;;;0.30;99.90;;;;;;5035617;28;20037;-65
2023/01/26 03:08:40;;;;;;;10.80;4.10;;;0.40;99.90;;;;;;5035524;28;20452;-65
2023/01/26 03:11:07;;;;;;;11.50;4.68;;;0.30;99.90;;;;;;5035196;28;20046;-65
2023/01/26 03:13:34;;;;;;;12.35;4.15;;;0.40;99.90;;;;;;5035607;28;20071;-65
2023/01/26 03:16:05;;;;;;;12.60;4.78;;;0.40;99.90;;;;;;5035463;28;20040;-65
2023/01/26 03:29:31;;;;;;;8.73;3.88;;;0.40;99.90;;;;;;5017206;28;20057;-65
2023/01/26 03:31:58;;;;;;;12.68;4.88;;;0.40;99.90;;;;;;5035152;28;20041;-65
2023/01/26 03:34:24;;;;;;;8.07;3.58;;;0.40;99.90;;;;;;5017507;28;20137;-65
2023/01/26 03:36:49;;;;;;;14.52;4.60;;;0.40;99.90;;;;;;5034833;28;20120;-65
2023/01/26 03:58:29;;;;;;;7.20;3.10;;;0.50;99.90;;;;;;5034713;28;20132;-66
2023/01/26 04:00:56;;;;;;;7.32;3.08;;;0.50;99.90;;;;;;5016645;28;20475;-65
2023/01/26 04:08:50;;;;;;;7.55;3.72;;;0.50;99.90;;;;;;5016350;28;20049;-65
2023/01/26 04:11:15;;;;;;;7.90;3.22;;;0.60;99.90;;;;;;5016332;28;20060;-65
2023/01/26 04:21:54;;;;;;;7.35;3.25;;;0.60;99.90;;;;;;5034287;28;20404;-65
2023/01/26 04:24:21;;;;;;;6.93;3.33;;;0.60;99.90;;;;;;5034195;28;20052;-65
2023/01/26 04:26:47;;;;;;;6.43;3.03;;;0.60;99.90;;;;;;5016124;28;20072;-65
2023/01/26 04:29:14;;;;;;;7.45;3.55;;;0.60;99.90;;;;;;5016088;28;20044;-65
2023/01/26 04:31:40;;;;;;;8.05;3.65;;;0.60;99.90;;;;;;5034063;28;20042;-65
2023/01/26 04:34:10;;;;;;;5.28;2.95;;;0.60;99.90;;;;;;5034041;28;20409;-65
2023/01/26 04:36:36;;;;;;;6.72;2.80;;;0.70;99.90;;;;;;5034055;28;20440;-65
2023/01/26 04:39:02;;;;;;;7.38;3.83;;;0.70;99.90;;;;;;5033938;28;20037;-65
2023/01/26 04:41:29;;;;;;;10.05;3.72;;;0.70;99.90;;;;;;5015914;28;20033;-65
2023/01/26 04:43:54;;;;;;;7.05;3.55;;;0.70;99.90;;;;;;5033821;28;20118;-64
2023/01/26 04:46:20;;;;;;;6.88;3.05;;;0.70;99.90;;;;;;5015819;28;20143;-65
2023/01/26 04:48:46;;;;;;;5.97;2.47;;;0.70;99.90;;;;;;5033677;28;20073;-65
2023/01/26 04:51:14;;;;;;;5.03;2.15;;;0.70;99.90;;;;;;5015784;28;20449;-65
2023/01/26 04:53:40;;;;;;;7.63;2.85;;;0.80;99.90;;;;;;5033655;28;20046;-65
2023/01/26 04:56:07;;;;;;;5.32;2.47;;;0.80;99.90;;;;;;5015760;28;20542;-65
2023/01/26 04:58:33;;;;;;;6.55;2.65;;;0.80;99.90;;;;;;5015871;28;20049;-65
2023/01/26 05:00:59;;;;;;;5.45;2.38;;;0.80;99.90;;;;;;5015763;28;20049;-65
2023/01/26 05:03:26;;;;;;;8.32;3.17;;;0.80;99.90;;;;;;5015759;28;20068;-65
2023/01/26 05:05:53;;;;;;;5.00;2.30;;;0.80;99.90;;;;;;5032869;28;20037;-64
2023/01/26 05:08:20;;;;;;;5.85;2.95;;;0.80;99.90;;;;;;5033094;28;20152;-65
2023/01/26 05:10:47;;;;;;;4.20;1.90;;;0.80;99.90;;;;;;5015441;28;20050;-65
2023/01/26 05:13:13;;;;;;;5.40;2.13;;;0.80;99.90;;;;;;5033359;28;20120;-65
2023/01/26 05:15:39;;;;;;;6.95;2.95;;;0.80;99.90;;;;;;5033294;28;20034;-65
2023/01/26 05:18:06;;;;;;;5.43;2.65;;;0.80;99.90;;;;;;5032949;28;20087;-65
2023/01/26 05:20:31;;;;;;;5.15;2.33;;;0.80;99.90;;;;;;5033003;28;20038;-65
2023/01/26 05:22:57;;;;;;;5.90;2.80;;;0.80;99.90;;;;;;4998927;28;20115;-64
2023/01/26 05:25:23;;;;;;;6.95;2.85;;;0.80;99.90;;;;;;5033209;28;20037;-65
2023/01/26 05:27:49;;;;;;;5.85;2.90;;;0.90;99.90;;;;;;5015073;28;20049;-65
2023/01/26 05:30:15;;;;;;;5.88;2.90;;;0.90;99.90;;;;;;5015140;28;20037;-64
2023/01/26 05:32:41;;;;;;;8.68;3.03;;;0.90;99.90;;;;;;5032865;28;20047;-65
2023/01/26 05:35:07;;;;;;;6.93;2.47;;;0.90;99.90;;;;;;5015000;28;20049;-64
2023/01/26 05:37:33;;;;;;;8.38;3.30;;;0.90;99.90;;;;;;5015343;28;20120;-64
2023/01/26 05:39:59;;;;;;;5.47;2.47;;;0.90;99.90;;;;;;5014964;28;20188;-64
2023/01/26 05:42:25;;;;;;;6.97;3.30;;;0.90;99.90;;;;;;5015366;28;20116;-64
2023/01/26 05:44:51;;;;;;;6.78;3.28;;;0.90;99.90;;;;;;5032661;28;20041;-65
2023/01/26 05:47:17;;;;;;;5.65;2.63;;;1.00;99.90;;;;;;5032853;28;20496;-64
2023/01/26 05:49:44;;;;;;;7.18;3.00;;;1.00;99.90;;;;;;5032907;28;20042;-64
2023/01/26 05:52:13;;;;;;;5.28;2.60;;;1.00;99.90;;;;;;5014771;28;20037;-65
2023/01/26 05:54:39;;;;;;;6.32;2.92;;;1.00;99.90;;;;;;5032746;28;20079;-65
2023/01/26 05:57:05;;;;;;;5.50;2.55;;;1.00;99.90;;;;;;5033141;28;20465;-65
2023/01/26 05:59:30;;;;;;;7.63;3.78;;;1.00;99.90;;;;;;5032866;28;20025;-65
2023/01/26 06:01:57;;;;;;;6.40;2.80;;;1.00;99.90;;;;;;5014795;28;20107;-65
2023/01/26 06:04:23;;;;;;;11.50;3.03;;;1.00;99.90;;;;;;5014951;28;20099;-64
2023/01/26 06:06:51;;;;;;;9.27;2.97;;;1.00;99.90;;;;;;5032732;28;20124;-65
2023/01/26 06:09:16;;;;;;;10.45;3.45;;;1.00;99.90;;;;;;5032600;28;20037;-65
2023/01/26 06:11:42;;;;;;;8.40;3.95;;;1.00;99.90;;;;;;5014529;28;20057;-65
2023/01/26 06:14:07;;;;;;;8.38;3.00;;;1.00;99.90;;;;;;5014667;28;20038;-65
2023/01/26 06:16:33;;;;;;;11.38;4.45;;;1.00;99.90;;;;;;5015282;28;20084;-65
2023/01/26 06:18:58;;;;;;;9.35;4.18;;;1.10;99.90;;;;;;5036573;28;20045;-66
2023/01/26 06:21:24;;;;;;;7.15;3.88;;;1.00;99.90;;;;;;5036499;28;20099;-65
2023/01/26 06:23:49;;;;;;;10.60;3.28;;;1.00;99.90;;;;;;5018639;28;20535;-65
2023/01/26 06:26:15;;;;;;;8.27;3.28;;;1.10;99.90;;;;;;5018724;28;20064;-65
2023/01/26 06:28:41;;;;;;;12.07;4.28;;;1.10;99.90;;;;;;5036348;28;20091;-65
2023/01/26 06:31:07;;;;;;;13.68;3.55;;;1.10;99.90;;;;;;5018305;28;20501;-65
2023/01/26 06:33:36;;;;;;;9.02;3.67;;;1.10;99.90;;;;;;5036233;28;20127;-65
2023/01/26 06:36:04;;;;;;;10.00;3.67;;;1.10;99.90;;;;;;5018275;28;20200;-65
2023/01/26 06:38:30;;;;;;;16.55;3.88;;;1.10;99.90;;;;;;5018208;28;20435;-66
2023/01/26 06:40:59;;;;;;;9.07;3.28;;;1.20;99.90;;;;;;5018307;28;20045;-64
2023/01/26 06:43:25;;;;;;;12.35;3.90;;;1.20;99.90;;;;;;5036043;28;20436;-64
2023/01/26 06:45:50;;;;;;;15.45;4.57;;;1.20;99.90;;;;;;5036021;28;20108;-65
2023/01/26 06:48:16;;;;;;;11.07;3.83;;;1.20;99.90;;;;;;5018114;28;20489;-65
2023/01/26 06:50:43;;;;;;;11.25;3.90;;;1.20;99.90;;;;;;5036036;28;20040;-65
2023/01/26 06:53:41;;;;;;;11.95;4.50;;;1.20;99.90;;;;;;5035920;28;20378;-65
2023/01/26 06:56:07;;;;;;;10.63;4.28;;;1.20;99.90;;;;;;5017501;28;20091;-65
2023/01/26 06:58:32;;;;;;;11.43;3.13;;;1.20;99.90;;;;;;5035914;28;20120;-67
2023/01/26 07:00:59;;;;;;;12.07;4.28;;;1.20;99.90;;;;;;5017821;28;20128;-65
2023/01/26 07:03:25;;;;;;;10.07;3.90;;;1.20;99.90;;;;;;5035582;28;20481;-65
2023/01/26 07:05:51;;;;;;;19.05;3.90;;;1.20;99.90;;;;;;5035400;28;20043;-64
2023/01/26 07:08:16;;;;;;;14.00;4.25;;;1.20;99.90;;;;;;5017489;28;20041;-65
2023/01/26 07:10:42;;;;;;;13.20;4.15;;;1.20;99.90;;;;;;5017440;28;20107;-66
2023/01/26 07:13:07;;;;;;;21.65;4.65;;;1.30;99.90;;;;;;5035587;28;20049;-65
2023/01/26 07:15:33;;;;;;;11.32;3.85;;;1.20;99.90;;;;;;5035579;28;20356;-67
2023/01/26 07:17:59;;;;;;;10.48;3.70;;;1.30;99.90;;;;;;5017722;28;20511;-65
2023/01/26 07:20:25;;;;;;;15.07;4.70;;;1.30;99.90;;;;;;5001074;28;20088;-65
2023/01/26 07:22:51;;;;;;;14.77;4.32;;;1.30;99.90;;;;;;5035301;28;20080;-65
2023/01/26 07:25:18;;;;;;;10.82;4.15;;;1.30;99.90;;;;;;5017394;28;20046;-64
2023/01/26 07:27:44;;;;;;;10.07;3.28;;;1.30;99.90;;;;;;5035177;28;20041;-65
2023/01/26 07:30:13;;;;;;;12.50;3.35;;;1.30;99.90;;;;;;5034350;28;20126;-64
2023/01/26 07:32:38;;;;;;;9.18;3.80;;;1.30;99.90;;;;;;5017335;28;20488;-65
2023/01/26 07:35:04;;;;;;;12.20;4.25;;;1.30;99.90;;;;;;5035178;28;20044;-65
2023/01/26 07:37:30;;;;;;;10.88;3.53;;;1.40;99.90;;;;;;5035222;28;20037;-63
2023/01/26 07:39:56;;;;;;;10.35;3.83;;;1.40;99.90;;;;;;5035135;28;20128;-65
2023/01/26 07:42:21;;;;;;;13.68;3.50;;;1.30;99.90;;;;;;5017099;28;20474;-65
2023/01/26 07:44:47;;;;;;;19.25;4.30;;;1.40;99.90;;;;;;5034696;28;20033;-64
2023/01/26 07:47:15;;;;;;;12.40;2.78;;;1.30;99.90;;;;;;5034836;28;20037;-64
2023/01/26 07:49:41;;;;;;;13.77;3.75;;;1.40;99.90;;;;;;5000675;28;20512;-64
2023/01/26 07:52:08;;;;;;;9.27;2.95;;;1.30;99.90;;;;;;5034860;28;20037;-64
2023/01/26 07:54:33;;;;;;;15.20;3.92;;;1.40;99.90;;;;;;5034806;28;20116;-65
2023/01/26 07:56:59;;;;;;;7.50;3.25;;;1.30;99.90;;;;;;5034433;28;20120;-64
2023/01/26 07:59:25;;;;;;;11.98;3.38;;;1.30;99.90;;;;;;5034353;28;20045;-65
2023/01/26 08:01:51;;;;;;;14.15;4.38;;;1.40;99.90;;;;;;5016493;28;20048;-64
2023/01/26 08:04:17;;;;;;;16.00;3.38;;;1.30;99.90;;;;;;5034497;28;20045;-64
2023/01/26 08:06:43;;;;;;;7.40;3.28;;;1.30;99.90;;;;;;5034211;28;20126;-65
2023/01/26 08:09:08;;;;;;;9.48;3.80;;;1.30;99.90;;;;;;5016447;28;20045;-64
2023/01/26 08:11:34;;;;;;;9.43;3.80;;;1.30;99.90;;;;;;5034195;28;20050;-64
2023/01/26 08:14:00;;;;;;;13.20;3.30;;;1.30;99.90;;;;;;5016329;28;20404;-67
2023/01/26 08:16:26;;;;;;;10.02;3.35;;;1.30;99.90;;;;;;5034328;28;20038;-64
2023/01/26 08:18:52;;;;;;;12.70;3.30;;;1.40;99.90;;;;;;5034290;28;20523;-65
2023/01/26 08:21:19;;;;;;;13.70;2.92;;;1.40;99.90;;;;;;5034301;28;20116;-65
2023/01/26 08:23:49;;;;;;;15.50;3.58;;;1.30;99.90;;;;;;5034234;28;20041;-65
2023/01/26 08:26:16;;;;;;;14.15;3.42;;;1.40;99.90;;;;;;5034209;28;20052;-65
2023/01/26 08:28:42;;;;;;;8.70;3.13;;;1.30;99.90;;;;;;5033851;28;20448;-65
2023/01/26 08:31:19;;;;;;;16.92;3.53;;;1.30;99.90;;;;;;5034095;28;20033;-65
2023/01/26 08:33:46;;;;;;;15.60;3.60;;;1.40;99.90;;;;;;5034166;28;20029;-65
2023/01/26 08:36:14;;;;;;;10.20;2.40;;;1.40;99.90;;;;;;5034057;28;20034;-65
2023/01/26 08:38:40;;;;;;;7.78;2.70;;;1.40;99.90;;;;;;5033688;28;20033;-65
2023/01/26 08:41:07;;;;;;;14.70;3.45;;;1.50;99.90;;;;;;5032992;28;20045;-65
2023/01/26 08:43:34;;;;;;;6.85;2.22;;;1.50;99.90;;;;;;5033939;28;20095;-65
2023/01/26 08:45:59;;;;;;;10.60;2.60;;;1.60;99.90;;;;;;5033484;28;20047;-65
2023/01/26 08:48:25;;;;;;;10.55;2.03;;;1.60;99.90;;;;;;4999402;28;20124;-65
2023/01/26 08:50:56;;;;;;;5.70;1.83;;;1.70;99.90;;;;;;5015973;28;20077;-65
2023/01/26 08:53:22;;;;;;;9.57;1.92;;;1.90;99.90;;;;;;5033759;28;20382;-65
2023/01/26 08:55:48;;;;;;;6.30;1.95;;;2.00;99.90;;;;;;5015714;28;20056;-66
2023/01/26 08:58:14;;;;;;;5.13;2.08;;;2.10;99.90;;;;;;5033598;28;20121;-65
2023/01/26 09:00:40;;;;;;;13.43;1.83;;;2.30;99.90;;;;;;5015555;28;20520;-64
2023/01/26 09:03:05;;;;;;;11.07;1.63;;;2.40;99.90;;;;;;5033866;28;20041;-65
2023/01/26 09:05:36;;;;;;;10.38;1.67;;;2.50;99.90;;;;;;5033279;28;20532;-65
2023/01/26 09:08:03;;;;;;;7.23;1.93;;;2.70;99.90;;;;;;5033135;28;20049;-65
2023/01/26 09:10:29;;;;;;;3.70;1.23;;;2.70;99.90;;;;;;5033266;28;20418;-64
2023/01/26 09:12:59;;;;;;;4.68;1.42;;;2.80;99.90;;;;;;5033341;28;20128;-65
2023/01/26 09:15:26;;;;;;;7.75;1.50;;;2.90;99.90;;;;;;5015450;28;20053;-66
2023/01/26 09:17:52;;;;;;;8.30;1.92;;;3.10;99.90;;;;;;5032422;28;20038;-66
2023/01/26 09:20:19;;;;;;;5.90;1.60;;;3.10;99.90;;;;;;5032436;28;20071;-66
2023/01/26 09:22:45;;;;;;;8.30;1.35;;;3.20;99.90;;;;;;5032056;28;20049;-66
2023/01/26 09:25:11;;;;;;;5.15;0.90;;;3.20;99.90;;;;;;5032360;28;20041;-66
2023/01/26 09:27:36;;;;;;;12.00;1.85;;;3.30;99.90;;;;;;5014235;28;20054;-65
2023/01/26 09:30:04;;;;;;;4.28;0.95;;;3.40;99.90;;;;;;5032015;28;20597;-66
2023/01/26 09:32:29;;;;;;;2.08;0.93;;;3.50;99.90;;;;;;5014277;28;20124;-66
2023/01/26 09:34:55;;;;;;;9.48;1.00;;;3.50;99.90;;;;;;5032241;28;20180;-66
2023/01/26 09:37:20;;;;;;;2.63;0.85;;;3.70;99.90;;;;;;5032104;28;20120;-65
2023/01/26 09:39:46;;;;;;;11.93;1.10;;;3.70;99.90;;;;;;5032147;28;20056;-65
2023/01/26 09:42:33;;;;;;;6.15;1.08;;;3.80;99.90;;;;;;5032176;28;20430;-65
2023/01/26 09:45:11;;;;;;;3.45;1.08;;;3.90;99.90;;;;;;5014363;28;20049;-65
2023/01/26 09:48:09;;;;;;;15.93;1.30;;;3.90;99.90;;;;;;5014636;28;20077;-65
2023/01/26 09:50:38;;;;;;;10.18;1.17;;;4.00;99.90;;;;;;5032081;28;20045;-65
2023/01/26 09:53:48;;;;;;;12.18;1.48;;;4.00;99.90;;;;;;5037127;28;20129;-65
2023/01/26 09:56:17;;;;;;;9.30;1.23;;;4.10;99.90;;;;;;4977093;28;20125;-66
2023/01/26 09:58:55;;;;;;;5.25;1.20;;;4.10;99.90;;;;;;5009985;28;20445;-66
2023/01/26 10:01:28;;;;;;;6.05;1.52;;;4.20;99.90;;;;;;5038587;28;20037;-65
2023/01/26 10:04:13;;;;;;;2.45;0.95;;;4.30;99.90;;;;;;5038484;28;20049;-66
2023/01/26 10:06:40;;;;;;;9.27;1.30;;;4.30;99.90;;;;;;5038306;28;20045;-66
2023/01/26 10:09:36;;;;;;;9.40;1.13;;;4.40;99.90;;;;;;5038392;28;20044;-66
2023/01/26 10:12:11;;;;;;;6.93;1.65;;;4.50;99.90;;;;;;5025568;28;20378;-66
2023/01/26 10:14:41;;;;;;;12.20;1.30;;;4.60;99.90;;;;;;5038424;28;20452;-66
2023/01/26 10:17:27;;;;;;;7.25;1.20;;;4.70;99.90;;;;;;5038410;28;20037;-66
2023/01/26 10:20:21;;;;;;;8.25;1.42;;;4.70;99.90;;;;;;5038058;28;20041;-66
2023/01/26 10:22:58;;;;;;;14.27;1.48;;;4.80;99.90;;;;;;5032293;28;20088;-66
2023/01/26 10:25:38;;;;;;;6.72;1.17;;;4.90;99.90;;;;;;5038356;28;20049;-66
2023/01/26 10:28:27;;;;;;;6.78;1.55;;;4.90;99.90;;;;;;5038204;28;20045;-66
2023/01/26 10:30:53;;;;;;;4.55;1.20;;;5.00;99.90;;;;;;5020155;28;20051;-66
2023/01/26 10:33:34;;;;;;;5.30;1.23;;;5.30;99.90;;;;;;5038241;28;20037;-66
2023/01/26 10:36:00;;;;;;;;;;;5.10;99.90;;;;;;5038693;28;20064;-66
2023/01/26 10:38:32;;;;;;;13.68;1.00;;;5.40;99.90;;;;;;5038225;28;19920;-66
2023/01/26 10:41:02;;;;;;;3.65;1.00;;;5.20;99.90;;;;;;5020175;28;20049;-66
2023/01/26 10:43:34;;;;;;;4.43;1.73;;;5.30;99.90;;;;;;5038419;28;20052;-66
2023/01/26 10:46:03;;;;;;;4.45;0.70;;;5.30;99.90;;;;;;5020286;28;20126;-66
2023/01/26 10:48:29;;;;;;;4.20;0.95;;;5.40;99.90;;;;;;5038044;28;20041;-66
2023/01/26 10:51:15;;;;;;;7.25;1.48;;;5.50;99.90;;;;;;5037860;28;20392;-65
2023/01/26 10:53:40;;;;;;;10.30;1.15;;;5.50;99.90;;;;;;5038046;28;20516;-66
2023/01/26 10:56:13;;;;;;;13.52;2.70;;;5.60;99.90;;;;;;5037977;28;20041;-65
2023/01/26 10:59:01;;;;;;;7.90;1.38;;;5.60;99.90;;;;;;5020101;28;20049;-66
2023/01/26 11:01:27;;;;;;;11.52;1.15;;;5.70;99.90;;;;;;5037745;28;20126;-66
2023/01/26 11:04:06;;;;;;;4.93;1.27;;;5.80;99.90;;;;;;5035331;28;20084;-66
2023/01/26 11:06:33;;;;;;;5.68;1.60;;;5.90;99.90;;;;;;5035022;28;20052;-66
2023/01/26 11:09:29;;;;;;;9.18;1.17;;;5.90;99.90;;;;;;5034725;28;20513;-66
2023/01/26 11:12:04;;;;;;;4.32;0.77;;;6.10;99.90;;;;;;5004789;28;20084;-66
2023/01/26 11:14:31;;;;;;;10.25;1.08;;;6.30;99.90;;;;;;5034301;28;20068;-66
2023/01/26 11:17:20;;;;;;;5.53;0.82;;;6.50;99.90;;;;;;5034630;28;20516;-66
2023/01/26 11:19:49;;;;;;;7.45;1.35;;;;;;;;;;5016958;28;20536;-66
2023/01/26 11:22:46;;;;;;;1.80;0.52;;;6.50;99.90;;;;;;5016904;28;20060;-65
2023/01/26 11:25:26;;;;;;;8.02;1.52;;;6.40;99.90;;;;;;5034465;28;20045;-66
2023/01/26 11:28:36;;;;;;;4.53;1.17;;;6.50;99.90;;;;;;5016258;28;20072;-66
2023/01/26 11:31:10;;;;;;;4.20;0.77;;;6.70;99.90;;;;;;5031014;28;20405;-66
2023/01/26 11:33:56;;;;;;;8.57;1.08;;;6.90;99.90;;;;;;5034121;28;20501;-66
2023/01/26 11:36:33;;;;;;;4.70;0.98;;;7.00;99.90;;;;;;5034343;28;20136;-66
2023/01/26 11:39:25;;;;;;;7.70;0.65;;;7.10;99.90;;;;;;5016205;28;20046;-66
2023/01/26 11:42:00;;;;;;;;;;;7.20;99.90;;;;;;5034497;28;20485;-66
2023/01/26 11:44:34;;;;;;;3.88;0.65;;;;;;;;;;5034179;28;19916;-66
2023/01/26 11:47:02;;;;;;;2.40;0.98;;;8.00;99.90;;;;;;5034220;28;20041;-66
2023/01/26 11:49:46;;;;;;;14.13;1.50;;;8.00;99.90;;;;;;5033804;28;20046;-67
2023/01/26 11:52:21;;;;;;;4.05;1.48;;;8.20;99.90;;;;;;5034056;28;20068;-66
2023/01/26 11:55:05;;;;;;;6.70;1.15;;;8.40;99.90;;;;;;5033981;28;20511;-66
2023/01/26 11:58:04;;;;;;;3.83;1.00;;;8.50;99.90;;;;;;5033599;28;20041;-66
2023/01/26 12:00:42;;;;;;;1.42;0.47;;;8.70;99.90;;;;;;5033972;28;20045;-68
2023/01/26 12:03:18;;;;;;;6.25;0.80;;;9.00;99.90;;;;;;5033844;28;20381;-66
2023/01/26 12:05:50;;;;;;;9.15;0.98;;;9.40;99.90;;;;;;5033774;28;20041;-67
2023/01/26 12:08:37;;;;;;;5.43;1.20;;;9.40;99.90;;;;;;5033663;28;20092;-68
2023/01/26 12:11:21;;;;;;;1.83;0.45;;;9.30;99.90;;;;;;5015566;28;20065;-67
2023/01/26 12:13:58;;;;;;;6.00;0.63;;;9.20;99.90;;;;;;5033628;28;20421;-67
2023/01/26 12:16:40;;;;;;;9.18;1.50;;;8.90;99.90;;;;;;5033157;28;20069;-66
2023/01/26 12:19:30;;;;;;;5.45;1.17;;;8.70;99.90;;;;;;5033525;28;20037;-66
2023/01/26 12:22:04;;;;;;;3.20;0.63;;;8.20;99.90;;;;;;5033450;28;20038;-67
2023/01/26 12:24:42;;;;;;;4.88;0.90;;;7.90;99.90;;;;;;5033240;28;20140;-66
2023/01/26 12:27:18;;;;;;;8.18;0.80;;;7.60;99.90;;;;;;5015643;28;20037;-66
2023/01/26 12:29:54;;;;;;;9.70;1.67;;;7.50;99.90;;;;;;5015228;28;20045;-66
2023/01/26 12:32:21;;;;;;;3.55;0.68;;;7.20;99.90;;;;;;5015277;28;20077;-66
2023/01/26 12:34:47;;;;;;;6.07;0.82;;;7.30;99.90;;;;;;5015239;28;20511;-66
2023/01/26 12:37:31;;;;;;;3.88;1.25;;;7.30;99.90;;;;;;5015243;28;20084;-66
2023/01/26 12:40:09;;;;;;;2.10;0.30;;;7.40;99.90;;;;;;5033038;28;20045;-66
2023/01/26 12:42:43;;;;;;;6.60;0.88;;;7.50;99.90;;;;;;5033066;28;20087;-66
2023/01/26 12:45:19;;;;;;;2.03;0.80;;;7.50;99.90;;;;;;5033070;28;20492;-67
2023/01/26 12:47:50;;;;;;;3.30;0.30;;;7.60;99.90;;;;;;5033253;28;20041;-66
2023/01/26 12:50:27;;;;;;;4.65;0.60;;;7.70;99.90;;;;;;5032568;28;20095;-66
2023/01/26 12:53:06;;;;;;;6.30;0.40;;;7.70;99.90;;;;;;5032907;28;20448;-67
2023/01/26 12:55:40;;;;;;;5.00;0.55;;;7.70;99.90;;;;;;5014748;28;20465;-66
2023/01/26 12:58:23;;;;;;;4.18;0.50;;;7.70;99.90;;;;;;5032511;28;20049;-66
2023/01/26 13:01:10;;;;;;;7.63;0.60;;;7.70;99.90;;;;;;5032456;28;20120;-66
2023/01/26 13:04:03;;;;;;;3.40;0.73;;;7.80;99.90;;;;;;5032640;28;20037;-66
2023/01/26 13:06:28;;;;;;;10.38;0.65;;;7.80;99.90;;;;;;5008538;28;20155;-66
2023/01/26 13:09:04;;;;;;;1.60;0.50;;;7.80;99.90;;;;;;5032511;28;20056;-66
2023/01/26 13:11:45;;;;;;;1.23;0.28;;;7.80;99.90;;;;;;5032319;28;20065;-66
2023/01/26 13:14:36;;;;;;;0.35;0.35;;;7.90;99.90;;;;;;5014496;28;20055;-66
2023/01/26 13:17:13;;;;;;;3.90;0.70;;;8.00;99.90;;;;;;5032533;28;20867;-66
2023/01/26 13:19:42;;;;;;;1.70;0.40;;;8.00;99.90;;;;;;5032418;28;20862;-66
2023/01/26 13:22:23;;;;;;;1.70;0.30;;;8.00;99.90;;;;;;5032324;28;20045;-66
2023/01/26 13:24:54;;;;;;;3.78;0.80;;;7.90;99.90;;;;;;5032318;28;20049;-66
2023/01/26 13:27:38;;;;;;;6.07;1.15;;;7.70;99.90;;;;;;5031730;28;20143;-66
2023/01/26 13:30:29;;;;;;;3.35;1.25;;;7.60;99.90;;;;;;5014198;28;20037;-66
2023/01/26 13:32:56;;;;;;;;;;;7.60;99.90;;;;;;5025324;28;20053;-66
2023/01/26 13:35:25;;;;;;;3.05;0.77;;;7.50;99.90;;;;;;5032219;28;19921;-66
2023/01/26 13:38:02;;;;;;;4.22;0.70;;;7.40;99.90;;;;;;5031921;28;20516;-66
2023/01/26 13:40:32;;;;;;;5.75;1.20;;;7.40;99.90;;;;;;5032190;28;20081;-67
2023/01/26 13:43:17;;;;;;;1.27;0.47;;;7.70;99.90;;;;;;5014084;28;20111;-66
2023/01/26 13:46:04;;;;;;;3.67;0.63;;;7.40;99.90;;;;;;5032085;28;20056;-66
2023/01/26 13:48:41;;;;;;;2.78;1.02;;;7.50;99.90;;;;;;5031678;28;20081;-66
2023/01/26 13:51:12;;;;;;;1.27;0.40;;;7.40;99.90;;;;;;5031581;28;20038;-67
2023/01/26 13:53:42;;;;;;;0.65;0.40;;;7.40;99.90;;;;;;5031816;28;20037;-66
2023/01/26 13:56:41;;;;;;;3.92;0.30;;;7.40;99.90;;;;;;5031920;28;20033;-66
2023/01/26 13:59:11;;;;;;;8.20;0.60;;;7.40;99.90;;;;;;4998842;28;20054;-66